sensor_id;sensor_type;location;lat;lon;timestamp;pressure;altitude;pressure_sealevel;temperature;humidity
30516;BME280;17297;54.022;10.760;2022-12-01T00:01:04;102818.13;;;7.19;72.17
30516;BME280;17297;54.022;10.760;2022-12-01T00:03:30;102818.50;;;7.14;72.25
30516;BME280;17297;54.022;10.760;2022-12-01T00:06:13;102827.59;;;7.12;72.25
30516;BME280;17297;54.022;10.760;2022-12-01T00:08:42;102824.19;;;7.10;71.97
30516;BME280;17297;54.022;10.760;2022-12-01T00:11:27;102822.97;;;7.03;72.12
30516;BME280;17297;54.022;10.760;2022-12-01T00:13:52;102820.66;;;6.98;72.13
30516;BME280;17297;54.022;10.760;2022-12-01T00:16:18;102821.75;;;6.96;71.94
30516;BME280;17297;54.022;10.760;2022-12-01T00:18:43;102826.34;;;6.93;72.09
30516;BME280;17297;54.022;10.760;2022-12-01T00:21:13;102818.56;;;6.90;72.13
30516;BME280;17297;54.022;10.760;2022-12-01T00:23:42;102816.13;;;6.87;72.04
30516;BME280;17297;54.022;10.760;2022-12-01T00:26:07;102814.28;;;6.88;71.98
30516;BME280;17297;54.022;10.760;2022-12-01T00:28:33;102819.66;;;6.88;72.09
30516;BME280;17297;54.022;10.760;2022-12-01T00:30:58;102816.88;;;6.89;71.89
30516;BME280;17297;54.022;10.760;2022-12-01T00:33:24;102815.88;;;6.90;72.06
30516;BME280;17297;54.022;10.760;2022-12-01T00:35:49;102805.94;;;6.92;71.93
30516;BME280;17297;54.022;10.760;2022-12-01T00:38:14;102806.78;;;6.93;72.10
30516;BME280;17297;54.022;10.760;2022-12-01T00:40:40;102801.19;;;6.96;71.98
30516;BME280;17297;54.022;10.760;2022-12-01T00:43:06;102806.66;;;6.94;71.81
30516;BME280;17297;54.022;10.760;2022-12-01T00:45:31;102806.53;;;6.96;71.88
30516;BME280;17297;54.022;10.760;2022-12-01T00:47:56;102812.75;;;6.97;72.10
30516;BME280;17297;54.022;10.760;2022-12-01T00:50:22;102809.09;;;6.98;72.00
30516;BME280;17297;54.022;10.760;2022-12-01T00:52:47;102818.00;;;6.98;72.02
30516;BME280;17297;54.022;10.760;2022-12-01T00:55:12;102813.34;;;7.00;71.97
30516;BME280;17297;54.022;10.760;2022-12-01T00:57:38;102816.03;;;7.00;71.73
30516;BME280;17297;54.022;10.760;2022-12-01T01:00:04;102814.09;;;7.02;71.90
30516;BME280;17297;54.022;10.760;2022-12-01T01:02:30;102815.06;;;7.01;71.89
30516;BME280;17297;54.022;10.760;2022-12-01T01:04:55;102820.28;;;7.03;71.90
30516;BME280;17297;54.022;10.760;2022-12-01T01:07:21;102822.88;;;7.04;71.80
30516;BME280;17297;54.022;10.760;2022-12-01T01:09:46;102820.06;;;7.06;71.83
30516;BME280;17297;54.022;10.760;2022-12-01T01:12:11;102820.06;;;7.06;71.70
30516;BME280;17297;54.022;10.760;2022-12-01T01:14:37;102826.38;;;7.05;71.71
30516;BME280;17297;54.022;10.760;2022-12-01T01:17:02;102834.41;;;7.05;71.87
30516;BME280;17297;54.022;10.760;2022-12-01T01:19:27;102837.09;;;7.05;71.88
30516;BME280;17297;54.022;10.760;2022-12-01T01:21:53;102837.94;;;7.05;71.86
30516;BME280;17297;54.022;10.760;2022-12-01T01:24:18;102841.59;;;7.04;71.93
30516;BME280;17297;54.022;10.760;2022-12-01T01:26:43;102839.78;;;7.05;71.92
30516;BME280;17297;54.022;10.760;2022-12-01T01:29:09;102838.91;;;7.04;71.93
30516;BME280;17297;54.022;10.760;2022-12-01T01:31:37;102833.66;;;7.03;71.76
30516;BME280;17297;54.022;10.760;2022-12-01T01:34:05;102841.69;;;7.03;71.85
30516;BME280;17297;54.022;10.760;2022-12-01T01:36:31;102838.19;;;7.02;71.85
30516;BME280;17297;54.022;10.760;2022-12-01T01:38:56;102837.34;;;7.02;71.98
30516;BME280;17297;54.022;10.760;2022-12-01T01:41:22;102841.94;;;7.00;71.79
30516;BME280;17297;54.022;10.760;2022-12-01T01:46:33;102839.50;;;6.97;72.04
30516;BME280;17297;54.022;10.760;2022-12-01T01:49:09;102841.19;;;6.98;71.95
30516;BME280;17297;54.022;10.760;2022-12-01T01:51:48;102842.91;;;6.99;72.16
30516;BME280;17297;54.022;10.760;2022-12-01T01:54:20;102842.06;;;6.98;72.11
30516;BME280;17297;54.022;10.760;2022-12-01T01:56:48;102838.50;;;6.98;72.28
30516;BME280;17297;54.022;10.760;2022-12-01T01:59:18;102841.94;;;7.00;72.33
30516;BME280;17297;54.022;10.760;2022-12-01T02:01:47;102843.88;;;6.98;72.14
30516;BME280;17297;54.022;10.760;2022-12-01T02:04:16;102840.34;;;6.97;72.45
30516;BME280;17297;54.022;10.760;2022-12-01T02:06:44;102852.13;;;6.94;72.31
30516;BME280;17297;54.022;10.760;2022-12-01T02:09:11;102845.09;;;6.93;72.15
30516;BME280;17297;54.022;10.760;2022-12-01T02:11:51;102844.34;;;6.91;72.45
30516;BME280;17297;54.022;10.760;2022-12-01T02:17:02;102840.94;;;6.89;72.39
30516;BME280;17297;54.022;10.760;2022-12-01T02:20:01;102838.28;;;6.89;72.51
30516;BME280;17297;54.022;10.760;2022-12-01T02:22:47;102843.50;;;6.91;72.36
30516;BME280;17297;54.022;10.760;2022-12-01T02:25:31;102830.00;;;6.92;72.24
30516;BME280;17297;54.022;10.760;2022-12-01T02:30:55;102837.81;;;6.96;72.51
30516;BME280;17297;54.022;10.760;2022-12-01T02:33:32;102838.50;;;6.98;72.67
30516;BME280;17297;54.022;10.760;2022-12-01T02:36:17;102837.44;;;7.00;72.73
30516;BME280;17297;54.022;10.760;2022-12-01T02:38:46;102839.16;;;7.01;72.44
30516;BME280;17297;54.022;10.760;2022-12-01T02:41:25;102841.84;;;7.01;72.40
30516;BME280;17297;54.022;10.760;2022-12-01T02:44:17;102840.97;;;7.01;72.55
30516;BME280;17297;54.022;10.760;2022-12-01T02:46:54;102841.84;;;7.01;72.47
30516;BME280;17297;54.022;10.760;2022-12-01T02:49:42;102838.41;;;6.99;72.40
30516;BME280;17297;54.022;10.760;2022-12-01T02:52:12;102840.00;;;7.02;72.19
30516;BME280;17297;54.022;10.760;2022-12-01T02:54:40;102846.31;;;7.01;72.10
30516;BME280;17297;54.022;10.760;2022-12-01T02:57:10;102844.38;;;7.03;72.37
30516;BME280;17297;54.022;10.760;2022-12-01T02:59:36;102841.69;;;7.03;72.36
30516;BME280;17297;54.022;10.760;2022-12-01T03:04:54;102839.78;;;7.05;72.30
30516;BME280;17297;54.022;10.760;2022-12-01T03:07:44;102832.59;;;7.05;72.30
30516;BME280;17297;54.022;10.760;2022-12-01T03:10:18;102842.53;;;7.03;72.10
30516;BME280;17297;54.022;10.760;2022-12-01T03:13:13;102834.53;;;7.03;72.24
30516;BME280;17297;54.022;10.760;2022-12-01T03:18:14;102838.03;;;7.04;72.18
30516;BME280;17297;54.022;10.760;2022-12-01T03:23:20;102841.47;;;7.06;72.05
30516;BME280;17297;54.022;10.760;2022-12-01T03:25:50;102836.25;;;7.04;72.19
30516;BME280;17297;54.022;10.760;2022-12-01T03:28:21;102842.44;;;7.05;72.42
30516;BME280;17297;54.022;10.760;2022-12-01T03:30:49;102834.41;;;7.05;72.23
30516;BME280;17297;54.022;10.760;2022-12-01T03:33:22;102828.22;;;7.04;72.52
30516;BME280;17297;54.022;10.760;2022-12-01T03:36:09;102835.38;;;7.04;72.52
30516;BME280;17297;54.022;10.760;2022-12-01T03:38:42;102838.28;;;7.01;72.18
30516;BME280;17297;54.022;10.760;2022-12-01T03:41:15;102834.88;;;6.99;72.26
30516;BME280;17297;54.022;10.760;2022-12-01T03:43:45;102833.31;;;6.96;72.42
30516;BME280;17297;54.022;10.760;2022-12-01T03:46:28;102836.97;;;6.95;72.44
30516;BME280;17297;54.022;10.760;2022-12-01T03:48:56;102842.53;;;6.92;72.34
30516;BME280;17297;54.022;10.760;2022-12-01T03:51:39;102834.75;;;6.89;72.44
30516;BME280;17297;54.022;10.760;2022-12-01T03:54:18;102836.69;;;6.87;72.33
30516;BME280;17297;54.022;10.760;2022-12-01T03:56:52;102837.66;;;6.86;72.43
30516;BME280;17297;54.022;10.760;2022-12-01T03:59:21;102839.50;;;6.85;72.34
30516;BME280;17297;54.022;10.760;2022-12-01T04:01:48;102833.41;;;6.83;72.15
30516;BME280;17297;54.022;10.760;2022-12-01T04:04:14;102833.41;;;6.83;72.05
30516;BME280;17297;54.022;10.760;2022-12-01T04:06:42;102838.75;;;6.83;71.96
30516;BME280;17297;54.022;10.760;2022-12-01T04:09:08;102839.72;;;6.82;72.08
30516;BME280;17297;54.022;10.760;2022-12-01T04:11:34;102843.34;;;6.81;72.01
30516;BME280;17297;54.022;10.760;2022-12-01T04:14:18;102840.66;;;6.81;71.99
30516;BME280;17297;54.022;10.760;2022-12-01T04:16:43;102841.66;;;6.80;71.88
30516;BME280;17297;54.022;10.760;2022-12-01T04:19:10;102845.19;;;6.81;72.04
30516;BME280;17297;54.022;10.760;2022-12-01T04:21:35;102846.78;;;6.83;72.07
30516;BME280;17297;54.022;10.760;2022-12-01T04:24:00;102843.13;;;6.84;71.83
30516;BME280;17297;54.022;10.760;2022-12-01T04:26:30;102841.28;;;6.85;71.78
30516;BME280;17297;54.022;10.760;2022-12-01T04:28:58;102851.03;;;6.86;71.93
30516;BME280;17297;54.022;10.760;2022-12-01T04:31:23;102849.22;;;6.86;71.93
30516;BME280;17297;54.022;10.760;2022-12-01T04:33:48;102853.72;;;6.86;71.75
30516;BME280;17297;54.022;10.760;2022-12-01T04:36:14;102853.59;;;6.87;71.93
30516;BME280;17297;54.022;10.760;2022-12-01T04:38:39;102852.72;;;6.87;71.88
30516;BME280;17297;54.022;10.760;2022-12-01T04:41:11;102856.38;;;6.86;71.99
30516;BME280;17297;54.022;10.760;2022-12-01T04:43:37;102854.56;;;6.86;71.92
30516;BME280;17297;54.022;10.760;2022-12-01T04:46:03;102854.56;;;6.86;71.91
30516;BME280;17297;54.022;10.760;2022-12-01T04:48:29;102849.31;;;6.85;71.95
30516;BME280;17297;54.022;10.760;2022-12-01T04:50:55;102854.56;;;6.86;72.06
30516;BME280;17297;54.022;10.760;2022-12-01T04:53:20;102850.19;;;6.85;72.03
30516;BME280;17297;54.022;10.760;2022-12-01T04:55:45;102850.19;;;6.85;71.87
30516;BME280;17297;54.022;10.760;2022-12-01T04:58:11;102851.13;;;6.84;72.10
30516;BME280;17297;54.022;10.760;2022-12-01T05:00:37;102851.13;;;6.84;72.13
30516;BME280;17297;54.022;10.760;2022-12-01T05:03:02;102844.94;;;6.84;72.23
30516;BME280;17297;54.022;10.760;2022-12-01T05:05:28;102842.50;;;6.81;72.31
30516;BME280;17297;54.022;10.760;2022-12-01T05:07:54;102840.81;;;6.80;72.07
30516;BME280;17297;54.022;10.760;2022-12-01T05:10:20;102840.91;;;6.78;71.96
30516;BME280;17297;54.022;10.760;2022-12-01T05:12:45;102843.72;;;6.77;71.88
30516;BME280;17297;54.022;10.760;2022-12-01T05:15:11;102837.75;;;6.73;71.80
30516;BME280;17297;54.022;10.760;2022-12-01T05:17:37;102849.41;;;6.72;71.57
30516;BME280;17297;54.022;10.760;2022-12-01T05:20:03;102846.84;;;6.70;71.44
30516;BME280;17297;54.022;10.760;2022-12-01T05:22:47;102854.97;;;6.69;71.11
30516;BME280;17297;54.022;10.760;2022-12-01T05:25:13;102851.69;;;6.65;71.15
30516;BME280;17297;54.022;10.760;2022-12-01T05:27:38;102847.41;;;6.63;70.80
30516;BME280;17297;54.022;10.760;2022-12-01T05:30:04;102858.13;;;6.63;70.78
30516;BME280;17297;54.022;10.760;2022-12-01T05:32:29;102858.25;;;6.61;70.75
30516;BME280;17297;54.022;10.760;2022-12-01T05:34:55;102859.19;;;6.60;70.94
30516;BME280;17297;54.022;10.760;2022-12-01T05:37:20;102862.97;;;6.58;70.76
30516;BME280;17297;54.022;10.760;2022-12-01T05:39:45;102878.16;;;6.57;70.67
30516;BME280;17297;54.022;10.760;2022-12-01T05:42:11;102874.63;;;6.57;70.86
30516;BME280;17297;54.022;10.760;2022-12-01T05:44:36;102873.78;;;6.56;70.90
30516;BME280;17297;54.022;10.760;2022-12-01T05:47:01;102870.38;;;6.54;70.85
30516;BME280;17297;54.022;10.760;2022-12-01T05:49:27;102868.66;;;6.53;70.91
30516;BME280;17297;54.022;10.760;2022-12-01T05:51:52;102872.31;;;6.52;70.83
30516;BME280;17297;54.022;10.760;2022-12-01T05:54:17;102876.91;;;6.50;71.09
30516;BME280;17297;54.022;10.760;2022-12-01T05:56:43;102871.47;;;6.52;70.96
30516;BME280;17297;54.022;10.760;2022-12-01T05:59:08;102869.97;;;6.47;70.89
30516;BME280;17297;54.022;10.760;2022-12-01T06:01:33;102871.69;;;6.48;70.84
30516;BME280;17297;54.022;10.760;2022-12-01T06:03:59;102874.38;;;6.48;70.92
30516;BME280;17297;54.022;10.760;2022-12-01T06:06:24;102873.38;;;6.50;70.88
30516;BME280;17297;54.022;10.760;2022-12-01T06:08:49;102869.03;;;6.48;71.05
30516;BME280;17297;54.022;10.760;2022-12-01T06:11:15;102868.88;;;6.50;70.92
30516;BME280;17297;54.022;10.760;2022-12-01T06:13:40;102864.63;;;6.47;70.99
30516;BME280;17297;54.022;10.760;2022-12-01T06:16:06;102882.38;;;6.48;71.06
30516;BME280;17297;54.022;10.760;2022-12-01T06:18:34;102872.63;;;6.47;71.11
30516;BME280;17297;54.022;10.760;2022-12-01T06:21:00;102885.91;;;6.49;71.28
30516;BME280;17297;54.022;10.760;2022-12-01T06:23:25;102890.28;;;6.50;71.48
30516;BME280;17297;54.022;10.760;2022-12-01T06:25:50;102890.06;;;6.53;71.38
30516;BME280;17297;54.022;10.760;2022-12-01T06:28:16;102884.69;;;6.53;71.62
30516;BME280;17297;54.022;10.760;2022-12-01T06:30:41;102890.81;;;6.55;71.43
30516;BME280;17297;54.022;10.760;2022-12-01T06:33:07;102890.66;;;6.57;71.51
30516;BME280;17297;54.022;10.760;2022-12-01T06:35:33;102889.72;;;6.58;71.54
30516;BME280;17297;54.022;10.760;2022-12-01T06:37:58;102893.25;;;6.58;71.72
30516;BME280;17297;54.022;10.760;2022-12-01T06:40:24;102897.63;;;6.59;71.85
30516;BME280;17297;54.022;10.760;2022-12-01T06:42:49;102904.56;;;6.62;71.74
30516;BME280;17297;54.022;10.760;2022-12-01T06:45:15;102899.44;;;6.59;71.73
30516;BME280;17297;54.022;10.760;2022-12-01T06:47:40;102903.81;;;6.60;71.75
30516;BME280;17297;54.022;10.760;2022-12-01T06:50:06;102896.78;;;6.59;71.64
30516;BME280;17297;54.022;10.760;2022-12-01T06:52:37;102906.47;;;6.60;71.65
30516;BME280;17297;54.022;10.760;2022-12-01T06:55:03;102902.97;;;6.59;71.54
30516;BME280;17297;54.022;10.760;2022-12-01T06:57:30;102907.47;;;6.59;71.31
30516;BME280;17297;54.022;10.760;2022-12-01T06:59:55;102909.38;;;6.57;71.06
30516;BME280;17297;54.022;10.760;2022-12-01T07:02:21;102911.22;;;6.56;71.00
30516;BME280;17297;54.022;10.760;2022-12-01T07:04:46;102921.06;;;6.56;70.99
30516;BME280;17297;54.022;10.760;2022-12-01T07:07:11;102921.06;;;6.56;70.67
30516;BME280;17297;54.022;10.760;2022-12-01T07:09:37;102924.59;;;6.56;70.88
30516;BME280;17297;54.022;10.760;2022-12-01T07:12:03;102927.16;;;6.58;70.86
30516;BME280;17297;54.022;10.760;2022-12-01T07:14:29;102923.50;;;6.59;71.01
30516;BME280;17297;54.022;10.760;2022-12-01T07:16:56;102918.38;;;6.56;70.97
30516;BME280;17297;54.022;10.760;2022-12-01T07:19:21;102919.38;;;6.55;70.85
30516;BME280;17297;54.022;10.760;2022-12-01T07:21:46;102923.00;;;6.54;70.71
30516;BME280;17297;54.022;10.760;2022-12-01T07:24:12;102920.44;;;6.52;71.14
30516;BME280;17297;54.022;10.760;2022-12-01T07:26:37;102925.03;;;6.50;70.88
30516;BME280;17297;54.022;10.760;2022-12-01T07:29:04;102934.13;;;6.47;71.04
30516;BME280;17297;54.022;10.760;2022-12-01T07:31:29;102933.50;;;6.44;71.07
30516;BME280;17297;54.022;10.760;2022-12-01T07:33:54;102926.69;;;6.40;71.38
30516;BME280;17297;54.022;10.760;2022-12-01T07:36:20;102922.41;;;6.37;71.18
30516;BME280;17297;54.022;10.760;2022-12-01T07:38:45;102933.34;;;6.34;71.44
30516;BME280;17297;54.022;10.760;2022-12-01T07:41:12;102929.91;;;6.32;71.73
30516;BME280;17297;54.022;10.760;2022-12-01T07:43:39;102927.22;;;6.32;71.70
30516;BME280;17297;54.022;10.760;2022-12-01T07:46:06;102937.22;;;6.30;71.80
30516;BME280;17297;54.022;10.760;2022-12-01T07:48:33;102934.63;;;6.29;71.90
30516;BME280;17297;54.022;10.760;2022-12-01T07:50:58;102938.28;;;6.28;72.03
30516;BME280;17297;54.022;10.760;2022-12-01T07:53:24;102934.75;;;6.27;71.93
30516;BME280;17297;54.022;10.760;2022-12-01T07:55:49;102942.66;;;6.29;71.97
30516;BME280;17297;54.022;10.760;2022-12-01T07:58:15;102932.94;;;6.28;71.62
30516;BME280;17297;54.022;10.760;2022-12-01T08:00:41;102937.66;;;6.24;71.78
30516;BME280;17297;54.022;10.760;2022-12-01T08:03:06;102937.66;;;6.24;71.85
30516;BME280;17297;54.022;10.760;2022-12-01T08:05:31;102935.91;;;6.23;71.73
30516;BME280;17297;54.022;10.760;2022-12-01T08:07:57;102935.50;;;6.16;71.59
30516;BME280;17297;54.022;10.760;2022-12-01T08:10:22;102937.25;;;6.17;71.52
30516;BME280;17297;54.022;10.760;2022-12-01T08:12:47;102945.56;;;6.13;71.53
30516;BME280;17297;54.022;10.760;2022-12-01T08:15:13;102938.09;;;6.18;71.49
30516;BME280;17297;54.022;10.760;2022-12-01T08:17:38;102947.81;;;6.19;71.52
30516;BME280;17297;54.022;10.760;2022-12-01T08:20:04;102947.09;;;6.17;71.46
30516;BME280;17297;54.022;10.760;2022-12-01T08:22:31;102951.78;;;6.13;71.56
30516;BME280;17297;54.022;10.760;2022-12-01T08:24:56;102953.72;;;6.11;71.57
30516;BME280;17297;54.022;10.760;2022-12-01T08:27:21;102957.34;;;6.10;71.53
30516;BME280;17297;54.022;10.760;2022-12-01T08:29:47;102955.09;;;6.04;71.66
30516;BME280;17297;54.022;10.760;2022-12-01T08:32:12;102954.47;;;6.00;71.60
30516;BME280;17297;54.022;10.760;2022-12-01T08:34:38;102959.09;;;5.98;71.88
30516;BME280;17297;54.022;10.760;2022-12-01T08:37:05;102963.03;;;5.93;71.78
30516;BME280;17297;54.022;10.760;2022-12-01T08:39:30;102963.22;;;5.90;71.79
30516;BME280;17297;54.022;10.760;2022-12-01T08:41:55;102958.84;;;5.89;71.63
30516;BME280;17297;54.022;10.760;2022-12-01T08:44:21;102962.25;;;5.91;71.93
30516;BME280;17297;54.022;10.760;2022-12-01T08:46:46;102954.38;;;5.89;71.71
30516;BME280;17297;54.022;10.760;2022-12-01T08:49:12;102962.59;;;5.86;71.76
30516;BME280;17297;54.022;10.760;2022-12-01T08:51:37;102970.69;;;5.85;71.61
30516;BME280;17297;54.022;10.760;2022-12-01T08:54:03;102972.94;;;5.78;71.67
30516;BME280;17297;54.022;10.760;2022-12-01T08:56:35;102967.81;;;5.75;71.65
30516;BME280;17297;54.022;10.760;2022-12-01T08:59:01;102973.38;;;5.72;71.79
30516;BME280;17297;54.022;10.760;2022-12-01T09:01:27;102976.06;;;5.72;71.72
30516;BME280;17297;54.022;10.760;2022-12-01T09:03:53;102974.34;;;5.71;71.73
30516;BME280;17297;54.022;10.760;2022-12-01T09:06:43;102980.63;;;5.70;71.80
30516;BME280;17297;54.022;10.760;2022-12-01T09:09:12;102977.97;;;5.70;71.47
30516;BME280;17297;54.022;10.760;2022-12-01T09:11:38;102980.00;;;5.66;71.47
30516;BME280;17297;54.022;10.760;2022-12-01T09:14:03;102986.31;;;5.65;71.45
30516;BME280;17297;54.022;10.760;2022-12-01T09:16:29;102991.84;;;5.62;71.45
30516;BME280;17297;54.022;10.760;2022-12-01T09:18:54;102990.03;;;5.63;71.32
30516;BME280;17297;54.022;10.760;2022-12-01T09:21:26;102988.34;;;5.62;71.40
30516;BME280;17297;54.022;10.760;2022-12-01T09:23:54;102987.38;;;5.63;71.31
30516;BME280;17297;54.022;10.760;2022-12-01T09:26:19;102986.72;;;5.59;71.15
30516;BME280;17297;54.022;10.760;2022-12-01T09:28:46;102989.50;;;5.57;71.36
30516;BME280;17297;54.022;10.760;2022-12-01T09:31:13;102989.41;;;5.59;71.38
30516;BME280;17297;54.022;10.760;2022-12-01T09:33:39;102994.63;;;5.61;71.25
30516;BME280;17297;54.022;10.760;2022-12-01T09:36:06;102999.22;;;5.59;71.20
30516;BME280;17297;54.022;10.760;2022-12-01T09:38:33;102993.25;;;5.55;71.13
30516;BME280;17297;54.022;10.760;2022-12-01T09:41:03;102996.78;;;5.55;71.22
30516;BME280;17297;54.022;10.760;2022-12-01T09:43:42;103002.13;;;5.55;71.37
30516;BME280;17297;54.022;10.760;2022-12-01T09:46:20;102990.59;;;5.55;71.44
30516;BME280;17297;54.022;10.760;2022-12-01T09:48:48;102991.44;;;5.55;71.28
30516;BME280;17297;54.022;10.760;2022-12-01T09:51:26;102994.31;;;5.52;71.24
30516;BME280;17297;54.022;10.760;2022-12-01T09:53:58;102987.28;;;5.51;71.32
30516;BME280;17297;54.022;10.760;2022-12-01T09:56:28;102986.41;;;5.51;71.33
30516;BME280;17297;54.022;10.760;2022-12-01T09:58:59;102986.41;;;5.51;71.29
30516;BME280;17297;54.022;10.760;2022-12-01T10:01:36;102987.28;;;5.51;71.40
30516;BME280;17297;54.022;10.760;2022-12-01T10:04:08;102980.97;;;5.52;71.34
30516;BME280;17297;54.022;10.760;2022-12-01T10:06:41;102986.31;;;5.52;71.46
30516;BME280;17297;54.022;10.760;2022-12-01T10:11:47;102981.06;;;5.51;71.19
30516;BME280;17297;54.022;10.760;2022-12-01T10:14:17;102981.16;;;5.49;71.22
30516;BME280;17297;54.022;10.760;2022-12-01T10:16:51;102977.53;;;5.50;71.32
30516;BME280;17297;54.022;10.760;2022-12-01T10:19:55;102973.25;;;5.48;71.10
30516;BME280;17297;54.022;10.760;2022-12-01T10:25:22;102976.81;;;5.48;71.41
30516;BME280;17297;54.022;10.760;2022-12-01T10:30:29;102966.22;;;5.47;70.85
30516;BME280;17297;54.022;10.760;2022-12-01T10:35:25;102969.94;;;5.44;70.71
30516;BME280;17297;54.022;10.760;2022-12-01T10:37:57;102960.13;;;5.45;70.85
30516;BME280;17297;54.022;10.760;2022-12-01T10:40:24;102961.94;;;5.44;70.36
30516;BME280;17297;54.022;10.760;2022-12-01T10:42:51;102961.94;;;5.44;70.44
30516;BME280;17297;54.022;10.760;2022-12-01T10:45:25;102956.72;;;5.43;70.32
30516;BME280;17297;54.022;10.760;2022-12-01T10:50:47;102953.94;;;5.44;70.35
30516;BME280;17297;54.022;10.760;2022-12-01T10:55:57;102955.66;;;5.45;70.07
30516;BME280;17297;54.022;10.760;2022-12-01T10:58:24;102957.34;;;5.46;70.01
30516;BME280;17297;54.022;10.760;2022-12-01T11:00:56;102957.34;;;5.46;70.27
30516;BME280;17297;54.022;10.760;2022-12-01T11:03:24;102949.22;;;5.48;69.97
30516;BME280;17297;54.022;10.760;2022-12-01T11:05:53;102954.34;;;5.51;70.06
30516;BME280;17297;54.022;10.760;2022-12-01T11:08:21;102949.22;;;5.48;69.73
30516;BME280;17297;54.022;10.760;2022-12-01T11:10:48;102958.84;;;5.50;69.88
30516;BME280;17297;54.022;10.760;2022-12-01T11:13:26;102951.81;;;5.49;69.98
30516;BME280;17297;54.022;10.760;2022-12-01T11:15:57;102947.22;;;5.51;69.88
30516;BME280;17297;54.022;10.760;2022-12-01T11:18:30;102951.59;;;5.52;70.03
30516;BME280;17297;54.022;10.760;2022-12-01T11:21:13;102957.69;;;5.54;69.79
30516;BME280;17297;54.022;10.760;2022-12-01T11:23:46;102955.03;;;5.54;69.83
30516;BME280;17297;54.022;10.760;2022-12-01T11:26:24;102953.09;;;5.56;69.68
30516;BME280;17297;54.022;10.760;2022-12-01T11:28:56;102952.22;;;5.56;69.85
30516;BME280;17297;54.022;10.760;2022-12-01T11:31:37;102958.53;;;5.55;69.83
30516;BME280;17297;54.022;10.760;2022-12-01T11:34:03;102955.03;;;5.54;69.65
30516;BME280;17297;54.022;10.760;2022-12-01T11:36:41;102957.69;;;5.54;69.85
30516;BME280;17297;54.022;10.760;2022-12-01T11:39:26;102955.88;;;5.55;69.65
30516;BME280;17297;54.022;10.760;2022-12-01T11:41:59;102960.38;;;5.54;69.60
30516;BME280;17297;54.022;10.760;2022-12-01T11:44:26;102950.53;;;5.55;69.97
30516;BME280;17297;54.022;10.760;2022-12-01T11:46:52;102957.56;;;5.56;69.87
30516;BME280;17297;54.022;10.760;2022-12-01T11:49:23;102948.59;;;5.57;69.76
30516;BME280;17297;54.022;10.760;2022-12-01T11:51:49;102945.91;;;5.57;69.37
30516;BME280;17297;54.022;10.760;2022-12-01T11:56:42;102955.75;;;5.56;69.73
30516;BME280;17297;54.022;10.760;2022-12-01T11:59:12;102949.44;;;5.57;69.61
30516;BME280;17297;54.022;10.760;2022-12-01T12:11:14;102948.59;;;5.57;69.54
30516;BME280;17297;54.022;10.760;2022-12-01T12:14:09;102943.25;;;5.57;69.67
30516;BME280;17297;54.022;10.760;2022-12-01T12:30:35;102936.34;;;5.54;69.60
30516;BME280;17297;54.022;10.760;2022-12-01T12:33:15;102936.44;;;5.53;69.51
30516;BME280;17297;54.022;10.760;2022-12-01T12:44:13;102926.16;;;5.47;69.80
30516;BME280;17297;54.022;10.760;2022-12-01T12:52:06;102922.66;;;5.46;69.95
30516;BME280;17297;54.022;10.760;2022-12-01T12:55:01;102922.66;;;5.46;70.21
30516;BME280;17297;54.022;10.760;2022-12-01T12:57:32;102925.19;;;5.48;70.18
30516;BME280;17297;54.022;10.760;2022-12-01T13:00:06;102927.88;;;5.48;70.13
30516;BME280;17297;54.022;10.760;2022-12-01T13:02:46;102922.53;;;5.48;70.25
30516;BME280;17297;54.022;10.760;2022-12-01T13:05:19;102927.03;;;5.47;70.11
30516;BME280;17297;54.022;10.760;2022-12-01T13:08:01;102929.59;;;5.49;70.36
30516;BME280;17297;54.022;10.760;2022-12-01T13:10:53;102934.81;;;5.50;70.54
30516;BME280;17297;54.022;10.760;2022-12-01T13:16:48;102925.88;;;5.51;70.58
30516;BME280;17297;54.022;10.760;2022-12-01T13:19:29;102925.09;;;5.49;70.74
30516;BME280;17297;54.022;10.760;2022-12-01T13:21:57;102921.69;;;5.47;70.40
30516;BME280;17297;54.022;10.760;2022-12-01T13:24:24;102923.41;;;5.48;70.35
30516;BME280;17297;54.022;10.760;2022-12-01T13:29:33;102928.97;;;5.45;70.37
30516;BME280;17297;54.022;10.760;2022-12-01T13:32:00;102917.31;;;5.46;70.50
30516;BME280;17297;54.022;10.760;2022-12-01T13:34:38;102922.53;;;5.48;70.61
30516;BME280;17297;54.022;10.760;2022-12-01T13:37:06;102914.53;;;5.48;70.46
30516;BME280;17297;54.022;10.760;2022-12-01T13:39:35;102911.00;;;5.47;70.62
30516;BME280;17297;54.022;10.760;2022-12-01T13:42:19;102914.44;;;5.49;70.73
30516;BME280;17297;54.022;10.760;2022-12-01T13:44:59;102920.41;;;5.53;70.72
30516;BME280;17297;54.022;10.760;2022-12-01T13:51:04;102919.97;;;5.46;70.92
30516;BME280;17297;54.022;10.760;2022-12-01T14:09:20;102918.59;;;5.41;71.36
30516;BME280;17297;54.022;10.760;2022-12-01T14:12:21;102921.03;;;5.44;71.51
30516;BME280;17297;54.022;10.760;2022-12-01T14:14:55;102918.50;;;5.42;71.37
30516;BME280;17297;54.022;10.760;2022-12-01T14:17:32;102912.19;;;5.43;71.19
30516;BME280;17297;54.022;10.760;2022-12-01T14:25:26;102903.75;;;5.49;71.32
30516;BME280;17297;54.022;10.760;2022-12-01T14:28:00;102903.63;;;5.51;71.29
30516;BME280;17297;54.022;10.760;2022-12-01T14:38:51;102897.78;;;5.59;71.63
30516;BME280;17297;54.022;10.760;2022-12-01T14:43:54;102911.84;;;5.61;71.70
30516;BME280;17297;54.022;10.760;2022-12-01T14:46:37;102906.50;;;5.61;71.69
30516;BME280;17297;54.022;10.760;2022-12-01T14:49:05;102908.03;;;5.65;71.43
30516;BME280;17297;54.022;10.760;2022-12-01T14:51:35;102901.91;;;5.63;71.76
30516;BME280;17297;54.022;10.760;2022-12-01T14:54:05;102903.63;;;5.64;71.58
30516;BME280;17297;54.022;10.760;2022-12-01T14:56:37;102893.59;;;5.67;71.86